sensor_id;sensor_type;location;lat;lon;timestamp;P1;durP1;ratioP1;P2;durP2;ratioP2
11034;SDS011;5571;48.110;-1.706;2023-08-21T00:02:00;6.18;;;1.55;;
11034;SDS011;5571;48.110;-1.706;2023-08-21T00:04:25;3.95;;;1.80;;
11034;SDS011;5571;48.110;-1.706;2023-08-21T00:06:51;5.72;;;1.83;;
11034;SDS011;5571;48.110;-1.706;2023-08-21T00:09:16;5.45;;;1.50;;
11034;SDS011;5571;48.110;-1.706;2023-08-21T00:11:42;9.02;;;2.03;;
11034;SDS011;5571;48.110;-1.706;2023-08-21T00:14:08;3.63;;;1.90;;
11034;SDS011;5571;48.110;-1.706;2023-08-21T00:16:33;4.68;;;1.90;;
11034;SDS011;5571;48.110;-1.706;2023-08-21T00:18:59;5.72;;;1.90;;
11034;SDS011;5571;48.110;-1.706;2023-08-21T00:21:25;6.35;;;1.80;;
11034;SDS011;5571;48.110;-1.706;2023-08-21T00:23:51;3.15;;;1.40;;
11034;SDS011;5571;48.110;-1.706;2023-08-21T00:26:16;5.68;;;1.70;;
11034;SDS011;5571;48.110;-1.706;2023-08-21T00:28:43;5.22;;;1.85;;
11034;SDS011;5571;48.110;-1.706;2023-08-21T00:31:08;3.88;;;1.88;;
11034;SDS011;5571;48.110;-1.706;2023-08-21T00:33:34;6.18;;;2.10;;
11034;SDS011;5571;48.110;-1.706;2023-08-21T00:36:00;8.43;;;2.15;;
11034;SDS011;5571;48.110;-1.706;2023-08-21T00:38:25;4.38;;;1.60;;
11034;SDS011;5571;48.110;-1.706;2023-08-21T00:40:51;8.23;;;2.00;;
11034;SDS011;5571;48.110;-1.706;2023-08-21T00:43:17;4.57;;;1.83;;
11034;SDS011;5571;48.110;-1.706;2023-08-21T00:45:44;3.58;;;1.55;;
11034;SDS011;5571;48.110;-1.706;2023-08-21T00:48:11;5.30;;;1.40;;
11034;SDS011;5571;48.110;-1.706;2023-08-21T00:50:38;7.35;;;1.98;;
11034;SDS011;5571;48.110;-1.706;2023-08-21T00:53:04;4.30;;;1.83;;
11034;SDS011;5571;48.110;-1.706;2023-08-21T00:55:30;4.43;;;1.70;;
11034;SDS011;5571;48.110;-1.706;2023-08-21T00:57:56;5.93;;;1.92;;
11034;SDS011;5571;48.110;-1.706;2023-08-21T01:00:23;7.03;;;1.67;;
11034;SDS011;5571;48.110;-1.706;2023-08-21T01:02:50;6.57;;;1.80;;
11034;SDS011;5571;48.110;-1.706;2023-08-21T01:05:17;6.38;;;1.80;;
11034;SDS011;5571;48.110;-1.706;2023-08-21T01:07:47;6.68;;;2.20;;
11034;SDS011;5571;48.110;-1.706;2023-08-21T01:10:36;5.13;;;1.80;;
11034;SDS011;5571;48.110;-1.706;2023-08-21T01:13:11;7.97;;;2.00;;
11034;SDS011;5571;48.110;-1.706;2023-08-21T01:15:43;6.63;;;1.80;;
11034;SDS011;5571;48.110;-1.706;2023-08-21T01:18:10;4.22;;;1.50;;
11034;SDS011;5571;48.110;-1.706;2023-08-21T01:20:37;8.10;;;2.03;;
11034;SDS011;5571;48.110;-1.706;2023-08-21T01:23:03;5.55;;;1.67;;
11034;SDS011;5571;48.110;-1.706;2023-08-21T01:25:30;2.97;;;1.85;;
11034;SDS011;5571;48.110;-1.706;2023-08-21T01:27:57;4.78;;;1.83;;
11034;SDS011;5571;48.110;-1.706;2023-08-21T01:30:23;5.20;;;1.63;;
11034;SDS011;5571;48.110;-1.706;2023-08-21T01:32:55;6.85;;;1.52;;
11034;SDS011;5571;48.110;-1.706;2023-08-21T01:35:31;7.53;;;2.05;;
11034;SDS011;5571;48.110;-1.706;2023-08-21T01:37:59;8.88;;;1.85;;
11034;SDS011;5571;48.110;-1.706;2023-08-21T01:40:26;4.82;;;2.05;;
11034;SDS011;5571;48.110;-1.706;2023-08-21T01:42:54;4.68;;;1.77;;
11034;SDS011;5571;48.110;-1.706;2023-08-21T01:45:20;7.53;;;2.20;;
11034;SDS011;5571;48.110;-1.706;2023-08-21T01:47:46;7.10;;;1.70;;
11034;SDS011;5571;48.110;-1.706;2023-08-21T01:50:12;7.43;;;2.03;;
11034;SDS011;5571;48.110;-1.706;2023-08-21T01:52:38;6.95;;;1.88;;
11034;SDS011;5571;48.110;-1.706;2023-08-21T01:55:03;13.35;;;4.05;;
11034;SDS011;5571;48.110;-1.706;2023-08-21T01:57:31;18.85;;;10.43;;
11034;SDS011;5571;48.110;-1.706;2023-08-21T01:59:57;12.38;;;7.35;;
11034;SDS011;5571;48.110;-1.706;2023-08-21T02:02:22;22.27;;;12.88;;
11034;SDS011;5571;48.110;-1.706;2023-08-21T02:04:48;14.63;;;8.65;;
11034;SDS011;5571;48.110;-1.706;2023-08-21T02:07:14;9.15;;;2.75;;
11034;SDS011;5571;48.110;-1.706;2023-08-21T02:09:40;5.60;;;1.98;;
11034;SDS011;5571;48.110;-1.706;2023-08-21T02:12:05;7.20;;;2.00;;
11034;SDS011;5571;48.110;-1.706;2023-08-21T02:14:31;6.63;;;2.10;;
11034;SDS011;5571;48.110;-1.706;2023-08-21T02:16:57;5.78;;;1.75;;
11034;SDS011;5571;48.110;-1.706;2023-08-21T02:19:22;4.85;;;1.80;;
11034;SDS011;5571;48.110;-1.706;2023-08-21T02:21:48;6.85;;;1.92;;
11034;SDS011;5571;48.110;-1.706;2023-08-21T02:24:14;5.88;;;2.05;;
11034;SDS011;5571;48.110;-1.706;2023-08-21T02:26:39;6.07;;;1.80;;
11034;SDS011;5571;48.110;-1.706;2023-08-21T02:29:05;4.80;;;1.92;;
11034;SDS011;5571;48.110;-1.706;2023-08-21T02:31:31;5.22;;;1.70;;
11034;SDS011;5571;48.110;-1.706;2023-08-21T02:33:57;8.50;;;2.10;;
11034;SDS011;5571;48.110;-1.706;2023-08-21T02:36:22;6.95;;;2.08;;
11034;SDS011;5571;48.110;-1.706;2023-08-21T02:38:49;5.85;;;1.80;;
11034;SDS011;5571;48.110;-1.706;2023-08-21T02:41:15;5.57;;;2.08;;
11034;SDS011;5571;48.110;-1.706;2023-08-21T02:43:40;5.85;;;2.08;;
11034;SDS011;5571;48.110;-1.706;2023-08-21T02:46:06;6.05;;;1.98;;
11034;SDS011;5571;48.110;-1.706;2023-08-21T02:48:31;5.45;;;1.83;;
11034;SDS011;5571;48.110;-1.706;2023-08-21T02:50:57;7.55;;;2.20;;
11034;SDS011;5571;48.110;-1.706;2023-08-21T02:53:22;4.07;;;1.85;;
11034;SDS011;5571;48.110;-1.706;2023-08-21T02:55:48;6.50;;;2.22;;
11034;SDS011;5571;48.110;-1.706;2023-08-21T02:58:14;8.77;;;2.30;;
11034;SDS011;5571;48.110;-1.706;2023-08-21T03:00:39;8.50;;;2.10;;
11034;SDS011;5571;48.110;-1.706;2023-08-21T03:03:05;7.85;;;2.28;;
11034;SDS011;5571;48.110;-1.706;2023-08-21T03:05:30;7.57;;;2.47;;
11034;SDS011;5571;48.110;-1.706;2023-08-21T03:07:56;4.80;;;2.10;;
11034;SDS011;5571;48.110;-1.706;2023-08-21T03:10:22;9.32;;;2.47;;
11034;SDS011;5571;48.110;-1.706;2023-08-21T03:12:48;8.65;;;2.30;;
11034;SDS011;5571;48.110;-1.706;2023-08-21T03:15:14;8.27;;;2.35;;
11034;SDS011;5571;48.110;-1.706;2023-08-21T03:17:40;5.32;;;2.25;;
11034;SDS011;5571;48.110;-1.706;2023-08-21T03:20:06;7.95;;;2.42;;
11034;SDS011;5571;48.110;-1.706;2023-08-21T03:22:32;5.82;;;2.03;;
11034;SDS011;5571;48.110;-1.706;2023-08-21T03:24:58;7.47;;;2.40;;
11034;SDS011;5571;48.110;-1.706;2023-08-21T03:27:24;6.00;;;2.30;;
11034;SDS011;5571;48.110;-1.706;2023-08-21T03:29:49;6.93;;;2.47;;
11034;SDS011;5571;48.110;-1.706;2023-08-21T03:32:15;7.88;;;2.10;;
11034;SDS011;5571;48.110;-1.706;2023-08-21T03:34:42;9.27;;;2.33;;
11034;SDS011;5571;48.110;-1.706;2023-08-21T03:37:07;3.63;;;2.10;;
11034;SDS011;5571;48.110;-1.706;2023-08-21T03:39:33;10.30;;;2.45;;
11034;SDS011;5571;48.110;-1.706;2023-08-21T03:41:59;8.32;;;2.53;;
11034;SDS011;5571;48.110;-1.706;2023-08-21T03:44:24;8.82;;;2.30;;
11034;SDS011;5571;48.110;-1.706;2023-08-21T03:46:50;9.13;;;2.55;;
11034;SDS011;5571;48.110;-1.706;2023-08-21T03:49:16;7.25;;;2.58;;
11034;SDS011;5571;48.110;-1.706;2023-08-21T03:51:41;9.02;;;3.10;;
11034;SDS011;5571;48.110;-1.706;2023-08-21T03:54:07;8.60;;;3.40;;
11034;SDS011;5571;48.110;-1.706;2023-08-21T03:56:32;6.85;;;3.35;;
11034;SDS011;5571;48.110;-1.706;2023-08-21T03:58:58;8.18;;;3.85;;
11034;SDS011;5571;48.110;-1.706;2023-08-21T04:01:24;9.73;;;3.83;;
11034;SDS011;5571;48.110;-1.706;2023-08-21T04:03:49;8.98;;;3.60;;
11034;SDS011;5571;48.110;-1.706;2023-08-21T04:06:15;9.88;;;3.97;;
11034;SDS011;5571;48.110;-1.706;2023-08-21T04:08:40;9.32;;;3.70;;
11034;SDS011;5571;48.110;-1.706;2023-08-21T04:11:06;10.07;;;3.90;;
11034;SDS011;5571;48.110;-1.706;2023-08-21T04:13:32;5.85;;;3.53;;
11034;SDS011;5571;48.110;-1.706;2023-08-21T04:15:57;6.80;;;3.42;;
11034;SDS011;5571;48.110;-1.706;2023-08-21T04:18:23;6.70;;;3.80;;
11034;SDS011;5571;48.110;-1.706;2023-08-21T04:20:49;7.50;;;3.95;;
11034;SDS011;5571;48.110;-1.706;2023-08-21T04:23:15;6.88;;;4.20;;
11034;SDS011;5571;48.110;-1.706;2023-08-21T04:25:40;6.57;;;3.75;;
11034;SDS011;5571;48.110;-1.706;2023-08-21T04:28:06;7.07;;;3.60;;
11034;SDS011;5571;48.110;-1.706;2023-08-21T04:30:35;7.75;;;3.55;;
11034;SDS011;5571;48.110;-1.706;2023-08-21T04:33:00;7.00;;;3.58;;
11034;SDS011;5571;48.110;-1.706;2023-08-21T04:35:26;6.30;;;3.70;;
11034;SDS011;5571;48.110;-1.706;2023-08-21T04:37:52;6.90;;;3.10;;
11034;SDS011;5571;48.110;-1.706;2023-08-21T04:40:17;5.85;;;3.38;;
11034;SDS011;5571;48.110;-1.706;2023-08-21T04:42:45;8.35;;;3.40;;
11034;SDS011;5571;48.110;-1.706;2023-08-21T04:45:11;6.25;;;3.38;;
11034;SDS011;5571;48.110;-1.706;2023-08-21T04:47:37;7.38;;;3.30;;
11034;SDS011;5571;48.110;-1.706;2023-08-21T04:50:02;7.82;;;3.58;;
11034;SDS011;5571;48.110;-1.706;2023-08-21T04:52:29;5.72;;;3.42;;
11034;SDS011;5571;48.110;-1.706;2023-08-21T04:54:54;10.25;;;3.65;;
11034;SDS011;5571;48.110;-1.706;2023-08-21T04:57:20;7.18;;;3.17;;
11034;SDS011;5571;48.110;-1.706;2023-08-21T04:59:46;4.78;;;3.10;;
11034;SDS011;5571;48.110;-1.706;2023-08-21T05:02:12;5.22;;;3.00;;
11034;SDS011;5571;48.110;-1.706;2023-08-21T05:04:38;6.65;;;3.25;;
11034;SDS011;5571;48.110;-1.706;2023-08-21T05:07:04;5.82;;;3.38;;
11034;SDS011;5571;48.110;-1.706;2023-08-21T05:09:30;5.93;;;3.13;;
11034;SDS011;5571;48.110;-1.706;2023-08-21T05:11:56;3.85;;;3.10;;
11034;SDS011;5571;48.110;-1.706;2023-08-21T05:14:22;4.28;;;3.28;;
11034;SDS011;5571;48.110;-1.706;2023-08-21T05:16:51;11.50;;;4.13;;
11034;SDS011;5571;48.110;-1.706;2023-08-21T05:19:16;13.05;;;4.05;;
11034;SDS011;5571;48.110;-1.706;2023-08-21T05:21:43;5.00;;;3.45;;
11034;SDS011;5571;48.110;-1.706;2023-08-21T05:24:09;10.68;;;3.60;;
11034;SDS011;5571;48.110;-1.706;2023-08-21T05:26:38;6.60;;;4.22;;
11034;SDS011;5571;48.110;-1.706;2023-08-21T05:29:03;7.57;;;4.28;;
11034;SDS011;5571;48.110;-1.706;2023-08-21T05:31:29;5.50;;;3.45;;
11034;SDS011;5571;48.110;-1.706;2023-08-21T05:33:55;6.57;;;3.58;;
11034;SDS011;5571;48.110;-1.706;2023-08-21T05:36:20;5.88;;;3.10;;
11034;SDS011;5571;48.110;-1.706;2023-08-21T05:38:46;7.35;;;3.83;;
11034;SDS011;5571;48.110;-1.706;2023-08-21T05:41:13;8.38;;;5.47;;
11034;SDS011;5571;48.110;-1.706;2023-08-21T05:43:39;7.40;;;3.65;;
11034;SDS011;5571;48.110;-1.706;2023-08-21T05:46:07;5.05;;;3.65;;
11034;SDS011;5571;48.110;-1.706;2023-08-21T05:48:33;7.10;;;3.42;;
11034;SDS011;5571;48.110;-1.706;2023-08-21T05:50:59;4.45;;;2.92;;
11034;SDS011;5571;48.110;-1.706;2023-08-21T05:53:24;5.25;;;2.80;;
11034;SDS011;5571;48.110;-1.706;2023-08-21T05:55:50;6.90;;;2.67;;
11034;SDS011;5571;48.110;-1.706;2023-08-21T05:58:15;2.92;;;2.63;;
11034;SDS011;5571;48.110;-1.706;2023-08-21T06:00:41;3.13;;;2.80;;
11034;SDS011;5571;48.110;-1.706;2023-08-21T06:03:07;4.18;;;3.65;;
11034;SDS011;5571;48.110;-1.706;2023-08-21T06:05:33;3.03;;;2.53;;
11034;SDS011;5571;48.110;-1.706;2023-08-21T06:07:58;5.20;;;2.60;;
11034;SDS011;5571;48.110;-1.706;2023-08-21T06:10:24;4.63;;;2.53;;
11034;SDS011;5571;48.110;-1.706;2023-08-21T06:12:49;4.93;;;2.78;;
11034;SDS011;5571;48.110;-1.706;2023-08-21T06:15:16;4.15;;;2.60;;
11034;SDS011;5571;48.110;-1.706;2023-08-21T06:17:42;3.28;;;2.28;;
11034;SDS011;5571;48.110;-1.706;2023-08-21T06:20:07;2.85;;;2.33;;
11034;SDS011;5571;48.110;-1.706;2023-08-21T06:22:36;2.45;;;2.25;;
11034;SDS011;5571;48.110;-1.706;2023-08-21T06:25:02;3.45;;;2.60;;
11034;SDS011;5571;48.110;-1.706;2023-08-21T06:27:28;3.10;;;2.30;;
11034;SDS011;5571;48.110;-1.706;2023-08-21T06:29:54;5.63;;;2.55;;
11034;SDS011;5571;48.110;-1.706;2023-08-21T06:32:20;3.58;;;2.53;;
11034;SDS011;5571;48.110;-1.706;2023-08-21T06:34:45;3.22;;;2.67;;
11034;SDS011;5571;48.110;-1.706;2023-08-21T06:37:11;6.43;;;3.10;;
11034;SDS011;5571;48.110;-1.706;2023-08-21T06:39:37;3.88;;;2.70;;
11034;SDS011;5571;48.110;-1.706;2023-08-21T06:42:03;5.13;;;2.60;;
11034;SDS011;5571;48.110;-1.706;2023-08-21T06:44:29;3.38;;;2.80;;
11034;SDS011;5571;48.110;-1.706;2023-08-21T06:46:55;5.20;;;2.50;;
11034;SDS011;5571;48.110;-1.706;2023-08-21T06:49:20;5.03;;;2.63;;
11034;SDS011;5571;48.110;-1.706;2023-08-21T06:51:46;5.95;;;2.53;;
11034;SDS011;5571;48.110;-1.706;2023-08-21T06:54:11;7.57;;;2.38;;
11034;SDS011;5571;48.110;-1.706;2023-08-21T06:56:37;7.63;;;2.13;;
11034;SDS011;5571;48.110;-1.706;2023-08-21T06:59:03;6.50;;;2.20;;
11034;SDS011;5571;48.110;-1.706;2023-08-21T07:01:28;6.95;;;2.63;;
11034;SDS011;5571;48.110;-1.706;2023-08-21T07:03:54;4.47;;;2.40;;
11034;SDS011;5571;48.110;-1.706;2023-08-21T07:06:20;3.53;;;2.03;;
11034;SDS011;5571;48.110;-1.706;2023-08-21T07:08:45;6.90;;;1.85;;
11034;SDS011;5571;48.110;-1.706;2023-08-21T07:11:11;3.45;;;1.92;;
11034;SDS011;5571;48.110;-1.706;2023-08-21T07:13:37;4.35;;;2.10;;
11034;SDS011;5571;48.110;-1.706;2023-08-21T07:16:03;4.30;;;1.98;;
11034;SDS011;5571;48.110;-1.706;2023-08-21T07:18:31;4.13;;;2.20;;
11034;SDS011;5571;48.110;-1.706;2023-08-21T07:20:58;3.83;;;2.25;;
11034;SDS011;5571;48.110;-1.706;2023-08-21T07:23:24;4.57;;;2.10;;
11034;SDS011;5571;48.110;-1.706;2023-08-21T07:25:50;4.60;;;2.10;;
11034;SDS011;5571;48.110;-1.706;2023-08-21T07:28:16;3.72;;;1.98;;
11034;SDS011;5571;48.110;-1.706;2023-08-21T07:30:42;4.72;;;1.88;;
11034;SDS011;5571;48.110;-1.706;2023-08-21T07:33:07;5.25;;;2.03;;
11034;SDS011;5571;48.110;-1.706;2023-08-21T07:35:33;5.72;;;1.88;;
11034;SDS011;5571;48.110;-1.706;2023-08-21T07:37:59;4.90;;;1.88;;
11034;SDS011;5571;48.110;-1.706;2023-08-21T07:40:24;8.25;;;1.90;;
11034;SDS011;5571;48.110;-1.706;2023-08-21T07:42:50;6.43;;;2.00;;
11034;SDS011;5571;48.110;-1.706;2023-08-21T07:45:16;5.45;;;1.75;;
11034;SDS011;5571;48.110;-1.706;2023-08-21T07:47:42;7.38;;;2.42;;
11034;SDS011;5571;48.110;-1.706;2023-08-21T07:50:08;6.43;;;2.22;;
11034;SDS011;5571;48.110;-1.706;2023-08-21T07:52:34;5.00;;;1.65;;
11034;SDS011;5571;48.110;-1.706;2023-08-21T07:55:01;4.30;;;1.65;;
11034;SDS011;5571;48.110;-1.706;2023-08-21T07:57:27;5.85;;;1.70;;
11034;SDS011;5571;48.110;-1.706;2023-08-21T07:59:53;6.20;;;2.13;;
11034;SDS011;5571;48.110;-1.706;2023-08-21T08:02:19;9.13;;;1.77;;
11034;SDS011;5571;48.110;-1.706;2023-08-21T08:04:44;3.97;;;1.65;;
11034;SDS011;5571;48.110;-1.706;2023-08-21T08:07:10;4.18;;;1.73;;
11034;SDS011;5571;48.110;-1.706;2023-08-21T08:09:36;6.57;;;2.08;;
11034;SDS011;5571;48.110;-1.706;2023-08-21T08:12:02;4.55;;;1.77;;
11034;SDS011;5571;48.110;-1.706;2023-08-21T08:14:28;7.93;;;1.90;;
11034;SDS011;5571;48.110;-1.706;2023-08-21T08:16:54;6.97;;;2.00;;
11034;SDS011;5571;48.110;-1.706;2023-08-21T08:19:19;4.47;;;1.73;;
11034;SDS011;5571;48.110;-1.706;2023-08-21T08:21:45;6.80;;;1.80;;
11034;SDS011;5571;48.110;-1.706;2023-08-21T08:24:10;6.88;;;1.75;;
11034;SDS011;5571;48.110;-1.706;2023-08-21T08:26:37;5.70;;;1.90;;
11034;SDS011;5571;48.110;-1.706;2023-08-21T08:29:03;3.53;;;1.58;;
11034;SDS011;5571;48.110;-1.706;2023-08-21T08:31:30;7.30;;;2.15;;
11034;SDS011;5571;48.110;-1.706;2023-08-21T08:33:55;4.82;;;1.70;;
11034;SDS011;5571;48.110;-1.706;2023-08-21T08:36:21;5.38;;;1.73;;
11034;SDS011;5571;48.110;-1.706;2023-08-21T08:38:47;5.35;;;1.80;;
11034;SDS011;5571;48.110;-1.706;2023-08-21T08:41:26;6.45;;;1.90;;
11034;SDS011;5571;48.110;-1.706;2023-08-21T08:43:59;9.10;;;1.98;;
11034;SDS011;5571;48.110;-1.706;2023-08-21T08:46:27;5.18;;;1.80;;
11034;SDS011;5571;48.110;-1.706;2023-08-21T08:48:55;5.93;;;2.00;;
11034;SDS011;5571;48.110;-1.706;2023-08-21T08:51:22;6.20;;;1.58;;
11034;SDS011;5571;48.110;-1.706;2023-08-21T08:53:49;10.00;;;2.30;;
11034;SDS011;5571;48.110;-1.706;2023-08-21T08:56:15;4.72;;;1.60;;
11034;SDS011;5571;48.110;-1.706;2023-08-21T08:58:41;7.70;;;2.28;;
11034;SDS011;5571;48.110;-1.706;2023-08-21T09:01:08;7.18;;;1.83;;
11034;SDS011;5571;48.110;-1.706;2023-08-21T09:03:35;4.22;;;1.85;;
11034;SDS011;5571;48.110;-1.706;2023-08-21T09:06:02;6.00;;;1.90;;
11034;SDS011;5571;48.110;-1.706;2023-08-21T09:08:29;4.57;;;1.63;;
11034;SDS011;5571;48.110;-1.706;2023-08-21T09:10:54;4.97;;;1.83;;
11034;SDS011;5571;48.110;-1.706;2023-08-21T09:13:20;9.07;;;1.80;;
11034;SDS011;5571;48.110;-1.706;2023-08-21T09:15:47;4.65;;;1.75;;
11034;SDS011;5571;48.110;-1.706;2023-08-21T09:18:14;4.63;;;1.90;;
11034;SDS011;5571;48.110;-1.706;2023-08-21T09:20:41;5.57;;;2.00;;
11034;SDS011;5571;48.110;-1.706;2023-08-21T09:23:07;8.88;;;2.17;;
11034;SDS011;5571;48.110;-1.706;2023-08-21T09:25:39;3.75;;;1.67;;
11034;SDS011;5571;48.110;-1.706;2023-08-21T09:28:06;4.72;;;1.63;;
11034;SDS011;5571;48.110;-1.706;2023-08-21T09:30:46;7.07;;;2.03;;
11034;SDS011;5571;48.110;-1.706;2023-08-21T09:33:13;6.38;;;1.92;;
11034;SDS011;5571;48.110;-1.706;2023-08-21T09:35:41;7.32;;;1.73;;
11034;SDS011;5571;48.110;-1.706;2023-08-21T09:38:08;6.35;;;2.38;;
11034;SDS011;5571;48.110;-1.706;2023-08-21T09:40:38;11.20;;;2.80;;
11034;SDS011;5571;48.110;-1.706;2023-08-21T09:43:08;6.45;;;1.67;;
11034;SDS011;5571;48.110;-1.706;2023-08-21T09:45:36;7.97;;;2.00;;
11034;SDS011;5571;48.110;-1.706;2023-08-21T09:48:02;7.05;;;2.30;;
11034;SDS011;5571;48.110;-1.706;2023-08-21T09:50:29;6.07;;;1.80;;
11034;SDS011;5571;48.110;-1.706;2023-08-21T09:52:56;5.60;;;1.90;;
11034;SDS011;5571;48.110;-1.706;2023-08-21T09:55:23;6.03;;;1.70;;
11034;SDS011;5571;48.110;-1.706;2023-08-21T09:57:51;8.05;;;2.08;;
11034;SDS011;5571;48.110;-1.706;2023-08-21T10:00:23;8.98;;;2.25;;
11034;SDS011;5571;48.110;-1.706;2023-08-21T10:02:51;6.20;;;2.20;;
11034;SDS011;5571;48.110;-1.706;2023-08-21T10:05:19;6.07;;;1.83;;
11034;SDS011;5571;48.110;-1.706;2023-08-21T10:07:49;5.25;;;1.98;;
11034;SDS011;5571;48.110;-1.706;2023-08-21T10:10:15;5.03;;;1.98;;
11034;SDS011;5571;48.110;-1.706;2023-08-21T10:12:42;9.05;;;2.20;;
11034;SDS011;5571;48.110;-1.706;2023-08-21T10:15:08;6.25;;;1.90;;
11034;SDS011;5571;48.110;-1.706;2023-08-21T10:17:37;6.72;;;1.98;;
11034;SDS011;5571;48.110;-1.706;2023-08-21T10:20:04;6.75;;;2.20;;
11034;SDS011;5571;48.110;-1.706;2023-08-21T10:25:19;6.40;;;2.05;;
11034;SDS011;5571;48.110;-1.706;2023-08-21T10:27:49;5.85;;;1.75;;
11034;SDS011;5571;48.110;-1.706;2023-08-21T10:30:20;7.32;;;2.10;;
11034;SDS011;5571;48.110;-1.706;2023-08-21T10:32:54;8.48;;;1.77;;
11034;SDS011;5571;48.110;-1.706;2023-08-21T10:35:21;6.28;;;1.73;;
11034;SDS011;5571;48.110;-1.706;2023-08-21T10:43:43;4.10;;;1.70;;
11034;SDS011;5571;48.110;-1.706;2023-08-21T10:46:10;3.08;;;1.63;;
11034;SDS011;5571;48.110;-1.706;2023-08-21T10:48:36;6.63;;;1.67;;
11034;SDS011;5571;48.110;-1.706;2023-08-21T10:51:03;5.50;;;1.95;;
11034;SDS011;5571;48.110;-1.706;2023-08-21T10:53:34;4.50;;;1.73;;
11034;SDS011;5571;48.110;-1.706;2023-08-21T10:56:03;6.65;;;1.85;;
11034;SDS011;5571;48.110;-1.706;2023-08-21T10:58:42;3.33;;;1.80;;
11034;SDS011;5571;48.110;-1.706;2023-08-21T11:01:08;6.18;;;1.98;;
11034;SDS011;5571;48.110;-1.706;2023-08-21T11:03:37;5.90;;;1.75;;
11034;SDS011;5571;48.110;-1.706;2023-08-21T11:06:05;4.35;;;1.65;;
11034;SDS011;5571;48.110;-1.706;2023-08-21T11:08:33;7.15;;;1.80;;
11034;SDS011;5571;48.110;-1.706;2023-08-21T11:10:59;7.75;;;2.05;;
11034;SDS011;5571;48.110;-1.706;2023-08-21T11:13:26;4.88;;;2.00;;
11034;SDS011;5571;48.110;-1.706;2023-08-21T11:15:59;5.93;;;2.15;;
11034;SDS011;5571;48.110;-1.706;2023-08-21T11:18:29;4.68;;;1.88;;
11034;SDS011;5571;48.110;-1.706;2023-08-21T11:21:06;3.33;;;1.40;;
11034;SDS011;5571;48.110;-1.706;2023-08-21T11:23:34;7.00;;;1.83;;
11034;SDS011;5571;48.110;-1.706;2023-08-21T11:26:01;4.97;;;1.90;;
11034;SDS011;5571;48.110;-1.706;2023-08-21T11:28:29;9.50;;;1.88;;
11034;SDS011;5571;48.110;-1.706;2023-08-21T11:30:56;6.30;;;2.10;;
11034;SDS011;5571;48.110;-1.706;2023-08-21T11:33:22;4.57;;;1.85;;
11034;SDS011;5571;48.110;-1.706;2023-08-21T11:35:49;4.95;;;1.63;;
11034;SDS011;5571;48.110;-1.706;2023-08-21T11:38:19;6.55;;;1.77;;
11034;SDS011;5571;48.110;-1.706;2023-08-21T11:40:59;6.30;;;1.95;;
11034;SDS011;5571;48.110;-1.706;2023-08-21T11:43:36;4.53;;;1.90;;
11034;SDS011;5571;48.110;-1.706;2023-08-21T11:46:03;7.63;;;2.00;;
11034;SDS011;5571;48.110;-1.706;2023-08-21T11:48:33;5.53;;;2.17;;
11034;SDS011;5571;48.110;-1.706;2023-08-21T11:51:00;6.85;;;1.98;;
11034;SDS011;5571;48.110;-1.706;2023-08-21T11:53:44;6.53;;;2.30;;
11034;SDS011;5571;48.110;-1.706;2023-08-21T11:56:14;5.95;;;1.80;;
11034;SDS011;5571;48.110;-1.706;2023-08-21T11:58:42;6.47;;;2.45;;
11034;SDS011;5571;48.110;-1.706;2023-08-21T12:01:10;5.28;;;1.48;;
11034;SDS011;5571;48.110;-1.706;2023-08-21T12:03:39;6.53;;;1.98;;
11034;SDS011;5571;48.110;-1.706;2023-08-21T12:06:09;3.38;;;1.70;;
11034;SDS011;5571;48.110;-1.706;2023-08-21T12:08:36;6.15;;;1.90;;
11034;SDS011;5571;48.110;-1.706;2023-08-21T12:11:03;6.72;;;1.98;;
11034;SDS011;5571;48.110;-1.706;2023-08-21T12:13:29;4.47;;;1.58;;
11034;SDS011;5571;48.110;-1.706;2023-08-21T12:15:55;5.55;;;1.42;;
11034;SDS011;5571;48.110;-1.706;2023-08-21T12:18:20;3.33;;;1.55;;
11034;SDS011;5571;48.110;-1.706;2023-08-21T12:20:46;3.67;;;1.80;;
11034;SDS011;5571;48.110;-1.706;2023-08-21T12:23:12;3.13;;;1.77;;
11034;SDS011;5571;48.110;-1.706;2023-08-21T12:25:37;3.80;;;1.52;;
11034;SDS011;5571;48.110;-1.706;2023-08-21T12:28:03;7.75;;;1.80;;
11034;SDS011;5571;48.110;-1.706;2023-08-21T12:30:29;5.25;;;1.52;;
11034;SDS011;5571;48.110;-1.706;2023-08-21T12:32:55;2.72;;;1.58;;
11034;SDS011;5571;48.110;-1.706;2023-08-21T12:35:21;4.03;;;1.30;;
11034;SDS011;5571;48.110;-1.706;2023-08-21T12:37:46;6.28;;;1.52;;
11034;SDS011;5571;48.110;-1.706;2023-08-21T12:40:12;4.72;;;1.45;;
11034;SDS011;5571;48.110;-1.706;2023-08-21T12:42:37;5.95;;;1.70;;
11034;SDS011;5571;48.110;-1.706;2023-08-21T12:45:03;5.20;;;1.35;;
11034;SDS011;5571;48.110;-1.706;2023-08-21T12:47:30;4.30;;;1.48;;
11034;SDS011;5571;48.110;-1.706;2023-08-21T12:49:55;7.15;;;1.60;;
11034;SDS011;5571;48.110;-1.706;2023-08-21T12:52:21;4.85;;;1.75;;
11034;SDS011;5571;48.110;-1.706;2023-08-21T12:54:46;5.20;;;1.50;;
11034;SDS011;5571;48.110;-1.706;2023-08-21T12:57:12;3.03;;;1.40;;
11034;SDS011;5571;48.110;-1.706;2023-08-21T12:59:39;4.15;;;3.35;;
11034;SDS011;5571;48.110;-1.706;2023-08-21T13:02:04;4.63;;;1.83;;
11034;SDS011;5571;48.110;-1.706;2023-08-21T13:04:30;4.07;;;1.80;;
11034;SDS011;5571;48.110;-1.706;2023-08-21T13:06:56;2.28;;;1.40;;
11034;SDS011;5571;48.110;-1.706;2023-08-21T13:09:22;8.25;;;1.67;;
11034;SDS011;5571;48.110;-1.706;2023-08-21T13:11:51;4.30;;;1.52;;
11034;SDS011;5571;48.110;-1.706;2023-08-21T13:14:19;5.13;;;1.40;;
11034;SDS011;5571;48.110;-1.706;2023-08-21T13:16:44;3.72;;;1.35;;
11034;SDS011;5571;48.110;-1.706;2023-08-21T13:19:10;4.68;;;1.60;;
11034;SDS011;5571;48.110;-1.706;2023-08-21T13:21:35;4.72;;;1.60;;
11034;SDS011;5571;48.110;-1.706;2023-08-21T13:24:01;3.85;;;1.35;;
11034;SDS011;5571;48.110;-1.706;2023-08-21T13:26:28;2.28;;;1.27;;
11034;SDS011;5571;48.110;-1.706;2023-08-21T13:28:54;3.70;;;1.50;;
11034;SDS011;5571;48.110;-1.706;2023-08-21T13:31:20;3.05;;;1.30;;
11034;SDS011;5571;48.110;-1.706;2023-08-21T13:36:12;3.55;;;1.30;;
11034;SDS011;5571;48.110;-1.706;2023-08-21T13:38:37;3.55;;;1.67;;
11034;SDS011;5571;48.110;-1.706;2023-08-21T13:41:03;5.05;;;1.33;;
11034;SDS011;5571;48.110;-1.706;2023-08-21T13:43:29;4.35;;;1.38;;
11034;SDS011;5571;48.110;-1.706;2023-08-21T13:45:54;2.83;;;1.67;;
11034;SDS011;5571;48.110;-1.706;2023-08-21T13:48:20;1.67;;;1.25;;
11034;SDS011;5571;48.110;-1.706;2023-08-21T13:50:45;3.22;;;1.50;;
11034;SDS011;5571;48.110;-1.706;2023-08-21T13:53:11;4.45;;;1.67;;
11034;SDS011;5571;48.110;-1.706;2023-08-21T13:55:36;4.50;;;1.38;;
11034;SDS011;5571;48.110;-1.706;2023-08-21T13:58:03;2.47;;;1.92;;
11034;SDS011;5571;48.110;-1.706;2023-08-21T14:00:28;3.13;;;1.38;;
11034;SDS011;5571;48.110;-1.706;2023-08-21T14:02:54;2.35;;;1.23;;
11034;SDS011;5571;48.110;-1.706;2023-08-21T14:05:20;5.90;;;1.42;;
11034;SDS011;5571;48.110;-1.706;2023-08-21T14:07:45;4.30;;;1.27;;
11034;SDS011;5571;48.110;-1.706;2023-08-21T14:10:11;2.60;;;1.23;;
11034;SDS011;5571;48.110;-1.706;2023-08-21T14:12:39;5.93;;;1.50;;
11034;SDS011;5571;48.110;-1.706;2023-08-21T14:15:05;2.47;;;1.40;;
11034;SDS011;5571;48.110;-1.706;2023-08-21T14:17:31;3.65;;;1.17;;
11034;SDS011;5571;48.110;-1.706;2023-08-21T14:19:57;2.58;;;1.15;;
11034;SDS011;5571;48.110;-1.706;2023-08-21T14:22:23;2.72;;;1.30;;
11034;SDS011;5571;48.110;-1.706;2023-08-21T14:24:48;3.33;;;1.33;;
11034;SDS011;5571;48.110;-1.706;2023-08-21T14:27:14;2.65;;;1.20;;
11034;SDS011;5571;48.110;-1.706;2023-08-21T14:29:41;3.83;;;1.42;;
11034;SDS011;5571;48.110;-1.706;2023-08-21T14:32:08;3.45;;;1.23;;
11034;SDS011;5571;48.110;-1.706;2023-08-21T14:34:34;3.92;;;1.10;;
11034;SDS011;5571;48.110;-1.706;2023-08-21T14:37:00;7.82;;;1.20;;
11034;SDS011;5571;48.110;-1.706;2023-08-21T14:39:26;5.50;;;1.65;;
11034;SDS011;5571;48.110;-1.706;2023-08-21T14:41:58;4.00;;;1.50;;
11034;SDS011;5571;48.110;-1.706;2023-08-21T14:44:26;3.45;;;1.35;;
11034;SDS011;5571;48.110;-1.706;2023-08-21T14:46:52;3.65;;;1.30;;
11034;SDS011;5571;48.110;-1.706;2023-08-21T14:49:19;6.60;;;1.15;;
11034;SDS011;5571;48.110;-1.706;2023-08-21T14:51:45;3.58;;;1.40;;
11034;SDS011;5571;48.110;-1.706;2023-08-21T14:54:10;2.72;;;1.27;;
11034;SDS011;5571;48.110;-1.706;2023-08-21T14:56:39;7.70;;;1.77;;